Time;durP1;ratioP1;P1;durP2;ratioP2;P2;SDS_P1;SDS_P2;PMS_P1;PMS_P2;Temp;Humidity;BMP_temperature;BMP_pressure;BME280_temperature;BME280_humidity;BME280_pressure;Samples;Min_cycle;Max_cycle;Signal;HPM_P1;HPM_P2
2023/08/06 00:01:45;;;;;;;5.00;2.40;;;;;;;18.33;100.00;93481.91;5069835;28;20203;-72
2023/08/06 00:04:13;;;;;;;2.97;2.00;;;;;;;18.23;100.00;93499.25;5070165;28;20207;-72
2023/08/06 00:06:39;;;;;;;4.00;2.45;;;;;;;18.19;100.00;93508.66;5070451;28;20199;-73
2023/08/06 00:09:06;;;;;;;5.35;2.70;;;;;;;18.23;100.00;93515.69;5080971;28;20202;-74
2023/08/06 00:11:33;;;;;;;4.97;2.45;;;;;;;18.36;100.00;93519.50;5070028;28;20210;-74
2023/08/06 00:14:00;;;;;;;4.70;2.35;;;;;;;18.39;100.00;93513.22;5070164;28;20230;-73
2023/08/06 00:16:27;;;;;;;2.92;2.20;;;;;;;18.29;100.00;93505.88;5070251;28;20230;-73
2023/08/06 00:18:53;;;;;;;4.38;2.35;;;;;;;18.29;100.00;93486.69;5070633;28;20203;-73
2023/08/06 00:21:21;;;;;;;6.05;2.20;;;;;;;18.30;100.00;93492.94;5070286;28;20610;-73
2023/08/06 00:23:48;;;;;;;4.50;2.30;;;;;;;18.30;100.00;93504.69;5070133;28;20352;-74
2023/08/06 00:26:15;;;;;;;4.05;2.40;;;;;;;18.17;100.00;93505.56;5069641;28;20261;-75
2023/08/06 00:28:42;;;;;;;4.43;2.50;;;;;;;18.12;100.00;93504.03;5070013;28;20260;-74
2023/08/06 00:31:08;;;;;;;6.03;2.55;;;;;;;17.98;100.00;93493.94;5070079;28;20295;-74
2023/08/06 00:33:35;;;;;;;3.75;1.95;;;;;;;17.88;100.00;93494.81;5071253;28;21104;-74
2023/08/06 00:36:02;;;;;;;3.58;2.53;;;;;;;17.86;100.00;93479.94;5066946;28;20654;-74
2023/08/06 00:38:30;;;;;;;3.63;2.60;;;;;;;17.99;100.00;93489.25;5069607;28;20678;-74
2023/08/06 00:40:57;;;;;;;3.42;2.03;;;;;;;17.97;100.00;93486.91;5069545;28;20253;-74
2023/08/06 00:43:23;;;;;;;6.10;2.22;;;;;;;18.10;100.00;93484.47;5069839;28;20195;-74
2023/08/06 00:45:50;;;;;;;2.33;1.80;;;;;;;18.00;100.00;93474.38;5068907;28;20228;-74
2023/08/06 00:48:17;;;;;;;4.90;2.22;;;;;;;17.99;100.00;93472.81;5069090;28;20207;-74
2023/08/06 00:50:44;;;;;;;3.95;2.20;;;;;;;18.00;100.00;93474.38;5068810;28;20650;-74
2023/08/06 00:53:11;;;;;;;2.70;1.98;;;;;;;18.11;100.00;93469.59;5078059;28;20246;-74
2023/08/06 00:55:40;;;;;;;3.58;2.25;;;;;;;18.14;100.00;93474.25;5069254;28;20798;-74
2023/08/06 00:58:07;;;;;;;6.47;2.30;;;;;;;18.19;100.00;93460.09;5069274;28;20223;-74
2023/08/06 01:00:34;;;;;;;4.78;2.17;;;;;;;18.26;100.00;93454.59;5071762;28;20199;-74
2023/08/06 01:03:01;;;;;;;3.10;2.30;;;;;;;18.18;100.00;93452.31;5069363;28;20199;-74
2023/08/06 01:05:28;;;;;;;3.13;2.10;;;;;;;18.16;100.00;93438.22;5068698;28;20261;-74
2023/08/06 01:08:12;;;;;;;5.55;2.50;;;;;;;18.13;100.00;93422.59;5068658;28;20934;-74
2023/08/06 01:10:52;;;;;;;3.17;2.30;;;;;;;18.15;100.00;93421.00;5069238;28;20218;-75
2023/08/06 01:13:26;;;;;;;4.53;2.30;;;;;;;18.36;100.00;93426.28;5069034;28;20763;-75
2023/08/06 01:15:57;;;;;;;4.45;2.53;;;;;;;18.48;100.00;93439.47;5068956;28;20253;-74
2023/08/06 01:18:24;;;;;;;3.88;2.38;;;;;;;18.70;100.00;93439.31;5069036;28;20199;-74
2023/08/06 01:20:52;;;;;;;4.30;2.30;;;;;;;18.86;100.00;93431.28;5068273;28;20198;-74
2023/08/06 01:23:19;;;;;;;3.88;2.33;;;;;;;18.89;100.00;93416.75;5068347;28;20618;-75
2023/08/06 01:25:56;;;;;;;3.58;2.70;;;;;;;18.73;100.00;93411.03;5068838;28;20206;-75
2023/08/06 01:28:28;;;;;;;3.88;2.10;;;;;;;18.87;100.00;93410.09;5068913;28;20241;-75
2023/08/06 01:31:00;;;;;;;4.22;2.10;;;;;;;18.81;100.00;93401.56;5069039;28;20226;-75
2023/08/06 01:33:31;;;;;;;5.63;2.95;;;;;;;18.98;100.00;93406.06;5071069;28;20714;-74
2023/08/06 01:36:00;;;;;;;5.30;2.50;;;;;;;19.11;100.00;93415.31;5068861;28;20649;-74
2023/08/06 01:38:28;;;;;;;6.05;2.10;;;;;;;19.09;100.00;93414.94;5069021;28;20328;-75
2023/08/06 01:40:55;;;;;;;4.30;2.60;;;;;;;19.05;100.00;93399.69;5068963;28;20242;-75
2023/08/06 01:43:21;;;;;;;4.55;2.80;;;;;;;19.00;100.00;93395.44;5061070;28;20214;-75
2023/08/06 01:45:48;;;;;;;6.18;3.38;;;;;;;18.78;100.00;93399.63;5068826;28;20217;-74
2023/08/06 01:48:15;;;;;;;7.65;3.50;;;;;;;18.83;100.00;93399.19;5068261;28;20623;-75
2023/08/06 01:50:41;;;;;;;4.20;2.85;;;;;;;18.73;100.00;93397.31;5068770;28;20198;-74
2023/08/06 01:53:10;;;;;;;5.60;2.95;;;;;;;18.65;100.00;93404.09;5068762;28;20686;-74
2023/08/06 01:55:36;;;;;;;4.88;2.75;;;;;;;18.60;100.00;93408.03;5068576;28;20610;-74
2023/08/06 01:58:03;;;;;;;7.95;3.45;;;;;;;18.58;100.00;93410.44;5068873;28;20235;-74
2023/08/06 02:00:30;;;;;;;5.18;3.08;;;;;;;18.52;100.00;93400.28;5075220;28;20252;-74
2023/08/06 02:02:57;;;;;;;6.18;2.88;;;;;;;18.38;100.00;93396.50;5068959;28;20300;-74
2023/08/06 02:05:23;;;;;;;4.68;3.20;;;;;;;18.45;100.00;93390.16;5068717;28;20681;-74
2023/08/06 02:07:50;;;;;;;4.15;2.95;;;;;;;18.48;100.00;93383.84;5068872;28;20199;-74
2023/08/06 02:10:18;;;;;;;3.08;2.30;;;;;;;18.40;100.00;93377.69;5069085;28;20486;-74
2023/08/06 02:12:45;;;;;;;3.65;2.50;;;;;;;18.47;100.00;93377.59;5068710;28;20230;-74
2023/08/06 02:15:12;;;;;;;4.45;2.63;;;;;;;18.35;100.00;93391.81;5068600;28;20280;-75
2023/08/06 02:17:38;;;;;;;5.63;2.53;;;;;;;18.54;100.00;93387.72;5068495;28;20209;-74
2023/08/06 02:20:07;;;;;;;2.35;1.80;;;;;;;18.46;100.00;93411.69;5068126;28;20195;-75
2023/08/06 02:22:33;;;;;;;5.13;2.50;;;;;;;18.39;100.00;93420.00;5068173;28;20650;-75
2023/08/06 02:25:00;;;;;;;4.57;2.65;;;;;;;18.43;100.00;93430.94;5068558;28;20206;-74
2023/08/06 02:27:28;;;;;;;3.22;1.85;;;;;;;18.31;100.00;93418.50;5068483;28;21176;-73
2023/08/06 02:29:55;;;;;;;5.25;2.97;;;;;;;18.20;100.00;93390.41;5068249;28;20229;-74
2023/08/06 02:32:22;;;;;;;8.63;2.50;;;;;;;18.03;100.00;93405.06;5068585;28;20235;-76
2023/08/06 02:34:49;;;;;;;6.70;3.90;;;;;;;17.92;100.00;93407.09;5069761;28;20652;-75
2023/08/06 02:37:15;;;;;;;8.75;2.90;;;;;;;17.83;100.00;93415.00;5068265;28;20658;-75
2023/08/06 02:39:43;;;;;;;4.53;2.70;;;;;;;17.80;100.00;93424.00;5067792;28;20249;-74
2023/08/06 02:42:10;;;;;;;4.88;2.90;;;;;;;17.85;100.00;93448.25;5068238;28;20314;-74
2023/08/06 02:44:42;;;;;;;5.50;2.88;;;;;;;18.01;100.00;93449.31;5068035;28;20203;-74
2023/08/06 02:47:09;;;;;;;3.55;2.55;;;;;;;17.89;100.00;93435.31;5068426;28;20634;-74
2023/08/06 02:49:36;;;;;;;5.85;4.13;;;;;;;17.94;100.00;93421.94;5068139;28;20268;-74
2023/08/06 02:52:02;;;;;;;2.67;2.10;;;;;;;17.93;100.00;93403.16;5068696;28;20223;-74
2023/08/06 02:54:29;;;;;;;6.80;3.97;;;;;;;17.84;100.00;93394.63;5068284;28;20235;-75
2023/08/06 02:56:56;;;;;;;4.10;2.95;;;;;;;17.91;100.00;93397.31;5067977;28;21242;-74
2023/08/06 02:59:23;;;;;;;2.95;2.08;;;;;;;17.98;100.00;93397.25;5070423;28;20203;-74
2023/08/06 03:01:51;;;;;;;4.35;2.67;;;;;;;17.98;100.00;93387.09;5078888;28;20268;-74
2023/08/06 03:04:18;;;;;;;4.72;3.28;;;;;;;18.03;100.00;93381.19;5071403;28;20230;-72
2023/08/06 03:06:45;;;;;;;7.00;3.38;;;;;;;18.13;100.00;93368.56;5071869;28;20257;-74
2023/08/06 03:09:12;;;;;;;4.43;2.60;;;;;;;18.08;100.00;93355.28;5071556;28;20658;-74
2023/08/06 03:11:38;;;;;;;6.38;2.65;;;;;;;18.27;100.00;93367.63;5075312;28;20629;-73
2023/08/06 03:14:05;;;;;;;4.57;2.88;;;;;;;18.33;100.00;93383.22;5071594;28;20292;-73
2023/08/06 03:16:32;;;;;;;5.78;3.20;;;;;;;18.39;100.00;93380.81;5072031;28;20226;-73
2023/08/06 03:19:00;;;;;;;4.80;2.63;;;;;;;18.43;100.00;93360.41;5071418;28;20203;-73
2023/08/06 03:21:27;;;;;;;3.92;2.50;;;;;;;18.36;100.00;93343.25;5071749;28;20240;-73
2023/08/06 03:23:54;;;;;;;4.03;2.80;;;;;;;18.10;100.00;93341.94;5071562;28;20319;-73
2023/08/06 03:26:20;;;;;;;7.05;2.72;;;;;;;18.29;100.00;93371.53;5071505;28;20247;-73
2023/08/06 03:28:47;;;;;;;3.35;2.40;;;;;;;18.46;100.00;93384.25;5071295;28;20206;-74
2023/08/06 03:31:14;;;;;;;5.32;2.75;;;;;;;18.53;100.00;93402.63;5071465;28;20199;-73
2023/08/06 03:33:41;;;;;;;2.97;2.33;;;;;;;18.47;100.00;93405.00;5075015;28;20324;-73
2023/08/06 03:36:09;;;;;;;4.25;2.42;;;;;;;18.60;100.00;93399.03;5071440;28;20207;-73
2023/08/06 03:38:35;;;;;;;4.53;2.50;;;;;;;18.36;100.00;93382.41;5071068;28;20199;-73
2023/08/06 03:41:02;;;;;;;4.60;2.45;;;;;;;18.28;100.00;93380.94;5061900;28;20247;-74
2023/08/06 03:43:29;;;;;;;6.28;2.25;;;;;;;18.24;100.00;93396.63;5070837;28;20229;-73
2023/08/06 03:45:56;;;;;;;5.20;2.55;;;;;;;18.26;100.00;93405.22;5077935;28;20263;-73
2023/08/06 03:48:22;;;;;;;4.40;2.42;;;;;;;18.25;100.00;93389.97;5072691;28;20210;-73
2023/08/06 03:50:49;;;;;;;4.43;2.80;;;;;;;18.37;100.00;93400.44;5070831;28;20199;-73
2023/08/06 03:53:17;;;;;;;4.85;2.78;;;;;;;18.36;100.00;93420.78;5070815;28;20326;-74
2023/08/06 03:55:44;;;;;;;3.60;2.63;;;;;;;18.32;100.00;93420.03;5070927;28;20256;-74
2023/08/06 03:58:11;;;;;;;3.30;2.35;;;;;;;18.36;100.00;93418.06;5070755;28;20750;-74
2023/08/06 04:00:40;;;;;;;4.30;2.45;;;;;;;18.38;100.00;93421.19;5080863;28;20707;-74
2023/08/06 04:03:06;;;;;;;5.18;2.92;;;;;;;18.39;100.00;93425.47;5072089;28;20226;-73
2023/08/06 04:05:33;;;;;;;5.22;2.38;;;;;;;18.49;100.00;93434.78;5070777;28;20207;-73
2023/08/06 04:08:00;;;;;;;3.53;2.35;;;;;;;18.42;100.00;93441.13;5070840;28;20250;-73
2023/08/06 04:10:28;;;;;;;4.05;2.50;;;;;;;18.43;100.00;93437.19;5069937;28;20295;-73
2023/08/06 04:12:55;;;;;;;4.32;2.90;;;;;;;18.36;100.00;93434.50;5070201;28;20203;-73
2023/08/06 04:15:21;;;;;;;4.53;2.88;;;;;;;18.29;100.00;93425.59;5070340;28;20223;-73
2023/08/06 04:17:48;;;;;;;3.40;2.55;;;;;;;18.27;100.00;93417.75;5070453;28;20214;-73
2023/08/06 04:20:15;;;;;;;4.25;2.70;;;;;;;18.34;100.00;93422.38;5070574;28;20199;-73
2023/08/06 04:22:42;;;;;;;5.68;2.70;;;;;;;18.28;100.00;93421.28;5070543;28;20569;-73
2023/08/06 04:25:11;;;;;;;2.63;2.20;;;;;;;18.27;100.00;93416.97;5070274;28;20215;-73
2023/08/06 04:27:41;;;;;;;4.47;2.88;;;;;;;18.26;100.00;93415.44;5069746;28;21109;-73
2023/08/06 04:30:08;;;;;;;3.25;2.38;;;;;;;18.45;100.00;93418.34;5069951;28;20241;-72
2023/08/06 04:32:35;;;;;;;4.05;3.05;;;;;;;18.51;100.00;93415.19;5071528;28;20227;-73
2023/08/06 04:35:02;;;;;;;3.30;2.17;;;;;;;18.45;100.00;93396.41;5079501;28;20235;-72
2023/08/06 04:37:29;;;;;;;3.75;2.65;;;;;;;18.46;100.00;93394.44;5069781;28;20207;-73
2023/08/06 04:39:56;;;;;;;4.72;3.15;;;;;;;18.56;100.00;93390.06;5067514;28;20272;-73
2023/08/06 04:42:22;;;;;;;4.43;3.10;;;;;;;18.65;100.00;93382.16;5069841;28;20203;-72
2023/08/06 04:44:51;;;;;;;4.18;2.55;;;;;;;18.80;100.00;93380.78;5069476;28;20569;-73
2023/08/06 04:47:18;;;;;;;4.05;2.60;;;;;;;18.91;100.00;93370.47;5070063;28;20199;-73
2023/08/06 04:49:45;;;;;;;4.55;2.85;;;;;;;18.89;100.00;93359.13;5069558;28;20195;-74
2023/08/06 04:52:11;;;;;;;6.80;2.50;;;;;;;18.89;100.00;93348.13;5069638;28;20231;-73
2023/08/06 04:54:38;;;;;;;3.92;2.72;;;;;;;18.91;100.00;93348.50;5069713;28;20235;-72
2023/08/06 04:57:06;;;;;;;4.55;2.85;;;;;;;19.14;100.00;93336.81;5072570;28;20199;-73
2023/08/06 04:59:32;;;;;;;4.10;2.88;;;;;;;19.41;100.00;93339.59;5069853;28;20564;-73
2023/08/06 05:02:00;;;;;;;5.40;3.22;;;;;;;19.66;100.00;93342.00;5069230;28;20257;-73
2023/08/06 05:04:27;;;;;;;5.30;3.17;;;;;;;20.06;100.00;93332.69;5058509;28;20674;-73
2023/08/06 05:06:54;;;;;;;4.78;3.50;;;;;;;21.34;100.00;93334.94;5069086;28;20229;-73
2023/08/06 05:09:21;;;;;;;6.57;3.53;;;;;;;23.67;93.75;93324.44;5069137;28;20488;-73
2023/08/06 05:11:48;;;;;;;4.72;3.42;;;;;;;24.34;82.33;93321.47;5069125;28;20207;-73
2023/08/06 05:14:15;;;;;;;4.65;3.78;;;;;;;23.86;82.75;93331.72;5069437;28;20321;-72
2023/08/06 05:16:42;;;;;;;4.53;3.72;;;;;;;22.01;90.21;93346.38;5069459;28;20272;-72
2023/08/06 05:19:10;;;;;;;7.82;3.28;;;;;;;21.96;90.86;93348.44;5069181;28;20206;-72
2023/08/06 05:21:36;;;;;;;4.45;3.15;;;;;;;22.21;90.59;93344.31;5069105;28;20207;-72
2023/08/06 05:24:04;;;;;;;4.88;3.05;;;;;;;22.55;88.46;93341.81;5069270;28;20210;-72
2023/08/06 05:26:30;;;;;;;4.75;3.42;;;;;;;21.81;89.90;93333.44;5068973;28;20284;-72
2023/08/06 05:28:57;;;;;;;6.78;3.83;;;;;;;21.39;94.21;93334.44;5069045;28;20280;-72
2023/08/06 05:31:24;;;;;;;9.13;4.15;;;;;;;22.41;92.19;93331.19;5066906;28;20197;-72
2023/08/06 05:33:51;;;;;;;8.25;5.95;;;;;;;22.74;89.44;93317.28;5070608;28;20954;-72
2023/08/06 05:36:19;;;;;;;10.60;8.23;;;;;;;23.49;85.42;93321.44;5069077;28;20566;-72
2023/08/06 05:38:46;;;;;;;8.30;5.72;;;;;;;22.33;87.32;93318.78;5068346;28;20195;-77
2023/08/06 05:41:12;;;;;;;9.18;7.15;;;;;;;22.50;88.97;93325.81;5068074;28;20195;-69
2023/08/06 05:43:39;;;;;;;8.02;6.43;;;;;;;22.49;89.88;93321.50;5068270;28;20245;-72
2023/08/06 05:46:06;;;;;;;9.65;7.28;;;;;;;22.25;90.57;93311.91;5068161;28;20195;-71
2023/08/06 05:48:32;;;;;;;6.60;4.70;;;;;;;22.51;89.67;93313.56;5070398;28;20248;-71
2023/08/06 05:50:59;;;;;;;6.28;4.10;;;;;;;22.58;88.25;93313.34;5069414;28;20264;-71
2023/08/06 05:53:27;;;;;;;5.05;3.35;;;;;;;23.99;78.37;93317.88;5066296;28;20207;-70
2023/08/06 05:55:54;;;;;;;4.95;4.07;;;;;;;24.94;74.82;93307.53;5065310;28;20983;-72
2023/08/06 05:58:21;;;;;;;6.22;5.03;;;;;;;26.40;70.66;93310.94;5070525;28;20672;-72
2023/08/06 06:00:53;;;;;;;5.90;4.68;;;;;;;26.11;68.91;93320.44;5068273;28;20199;-72
2023/08/06 06:03:19;;;;;;;6.82;5.50;;;;;;;26.34;68.11;93315.59;5066621;28;20195;-73
2023/08/06 06:05:46;;;;;;;7.55;4.90;;;;;;;25.42;70.56;93326.28;5068122;28;20245;-71
2023/08/06 06:08:13;;;;;;;8.93;5.68;;;;;;;25.91;69.21;93336.72;5067736;28;20654;-71
2023/08/06 06:10:42;;;;;;;6.20;4.70;;;;;;;26.09;65.70;93322.91;5068086;28;20199;-72
2023/08/06 06:13:12;;;;;;;5.28;4.68;;;;;;;26.50;65.17;93337.53;5066530;28;20428;-72
2023/08/06 06:15:39;;;;;;;4.75;3.75;;;;;;;27.00;63.39;93336.16;5068140;28;20364;-72
2023/08/06 06:18:06;;;;;;;4.15;3.53;;;;;;;26.70;63.25;93342.63;5067735;28;20286;-72
2023/08/06 06:20:35;;;;;;;6.03;3.70;;;;;;;27.29;60.19;93349.56;5066557;28;20203;-71
2023/08/06 06:23:02;;;;;;;3.80;3.17;;;;;;;27.47;58.57;93355.09;5068553;28;20255;-70
2023/08/06 06:25:28;;;;;;;4.72;2.90;;;;;;;27.48;59.83;93355.84;5068603;28;20230;-69
2023/08/06 06:27:58;;;;;;;3.85;3.22;;;;;;;27.19;60.91;93359.16;5068061;28;20234;-69
2023/08/06 06:30:25;;;;;;;3.20;2.30;;;;;;;26.63;61.15;93371.50;5067816;28;20195;-70
2023/08/06 06:32:52;;;;;;;3.97;2.95;;;;;;;24.86;67.77;93379.03;5069172;28;20222;-71
2023/08/06 06:35:18;;;;;;;3.00;2.70;;;;;;;24.73;66.21;93381.09;5071139;28;20230;-71
2023/08/06 06:37:45;;;;;;;4.30;2.60;;;;;;;23.98;68.62;93385.50;5071503;28;20600;-73
2023/08/06 06:40:12;;;;;;;3.42;3.00;;;;;;;25.53;65.51;93386.16;5071226;28;20203;-71
2023/08/06 06:42:39;;;;;;;5.22;4.28;;;;;;;25.88;64.20;93390.34;5069769;28;20191;-72
2023/08/06 06:45:09;;;;;;;2.55;1.92;;;;;;;25.53;64.47;93380.59;5071542;28;20195;-72
2023/08/06 06:47:36;;;;;;;2.22;1.85;;;;;;;25.63;64.18;93390.53;5068453;28;20195;-75
2023/08/06 06:50:02;;;;;;;3.63;1.65;;;;;;;24.91;67.54;93408.16;5070664;28;20220;-74
2023/08/06 06:52:30;;;;;;;2.45;1.52;;;;;;;23.89;70.53;93413.84;5071383;28;20277;-71
2023/08/06 06:54:57;;;;;;;2.40;1.95;;;;;;;23.25;73.82;93423.97;5064846;28;20335;-73
2023/08/06 06:57:23;;;;;;;4.00;3.28;;;;;;;23.05;74.27;93428.88;5070184;28;20319;-73
2023/08/06 06:59:50;;;;;;;2.55;2.10;;;;;;;22.89;73.96;93439.97;5071016;28;20265;-77
2023/08/06 07:02:18;;;;;;;5.38;3.17;;;;;;;23.18;75.05;93438.00;5071341;28;20716;-72
2023/08/06 07:04:45;;;;;;;8.50;6.07;;;;;;;24.59;67.59;93437.72;5071565;28;20251;-73
2023/08/06 07:07:12;;;;;;;3.72;3.03;;;;;;;24.90;64.71;93437.06;5071344;28;20592;-74
2023/08/06 07:09:38;;;;;;;7.28;5.18;;;;;;;24.89;65.22;93441.84;5070842;28;20584;-75
2023/08/06 07:12:08;;;;;;;7.43;5.22;;;;;;;24.23;67.34;93451.16;5071267;28;20615;-71
2023/08/06 07:14:35;;;;;;;8.80;4.95;;;;;;;23.60;69.20;93457.38;5071081;28;20309;-73
2023/08/06 07:17:02;;;;;;;6.57;4.25;;;;;;;23.98;68.46;93458.22;5070771;28;20191;-75
2023/08/06 07:19:30;;;;;;;4.63;3.42;;;;;;;24.77;66.06;93448.97;5071171;28;20206;-75
2023/08/06 07:21:57;;;;;;;7.35;4.13;;;;;;;26.35;59.10;93455.97;5070855;28;20275;-74
2023/08/06 07:24:35;;;;;;;4.35;3.95;;;;;;;27.93;53.90;93435.72;5070922;28;20198;-74
2023/08/06 07:27:02;;;;;;;4.18;3.55;;;;;;;28.33;52.73;93445.81;5069094;28;20217;-75
2023/08/06 07:29:37;;;;;;;6.90;3.83;;;;;;;27.84;52.08;93449.66;5070277;28;20837;-76
2023/08/06 07:32:04;;;;;;;3.60;2.78;;;;;;;28.11;52.31;93446.81;5069394;28;20275;-75
2023/08/06 07:34:32;;;;;;;2.55;2.25;;;;;;;28.45;50.99;93444.84;5072203;28;20697;-75
2023/08/06 07:36:59;;;;;;;3.45;2.72;;;;;;;28.47;50.58;93445.13;5070129;28;20205;-75
2023/08/06 07:39:28;;;;;;;4.05;2.72;;;;;;;27.27;52.38;93440.25;5070257;28;20218;-76
2023/08/06 07:41:55;;;;;;;3.22;2.60;;;;;;;27.18;52.86;93450.16;5070147;28;20195;-74
2023/08/06 07:44:26;;;;;;;3.72;2.53;;;;;;;28.00;51.47;93434.63;5070243;28;20199;-75
2023/08/06 07:46:53;;;;;;;2.95;2.30;;;;;;;28.04;50.60;93432.44;5069971;28;20183;-73
2023/08/06 07:49:20;;;;;;;3.25;2.80;;;;;;;28.17;51.97;93442.13;5070467;28;20215;-73
2023/08/06 07:51:48;;;;;;;4.43;3.35;;;;;;;28.73;49.83;93437.88;5070447;28;20268;-73
2023/08/06 07:54:15;;;;;;;4.22;2.78;;;;;;;28.04;49.99;93436.00;5069504;28;20242;-72
2023/08/06 07:56:41;;;;;;;4.45;2.65;;;;;;;27.40;51.97;93438.88;5064781;28;20207;-71
2023/08/06 07:59:09;;;;;;;2.53;2.33;;;;;;;27.23;51.50;93445.97;5064419;28;20203;-72
2023/08/06 08:01:41;;;;;;;3.08;2.75;;;;;;;27.11;53.31;93442.13;5070388;28;20719;-73
2023/08/06 08:04:08;;;;;;;2.58;2.38;;;;;;;26.34;54.85;93438.53;5070656;28;20261;-72
2023/08/06 08:06:35;;;;;;;4.88;3.00;;;;;;;27.32;53.09;93431.31;5067525;28;20203;-72
2023/08/06 08:09:04;;;;;;;2.92;2.10;;;;;;;26.95;53.22;93430.50;5069953;28;20301;-71
2023/08/06 08:11:30;;;;;;;3.67;2.47;;;;;;;27.64;50.98;93436.25;5068648;28;20207;-71
2023/08/06 08:13:57;;;;;;;3.95;3.22;;;;;;;28.30;51.50;93431.59;5069323;28;20280;-74
2023/08/06 08:16:24;;;;;;;4.90;2.95;;;;;;;28.47;49.54;93428.41;5067785;28;20222;-72
2023/08/06 08:18:51;;;;;;;4.38;2.60;;;;;;;28.19;49.82;93436.13;5067418;28;20273;-73
2023/08/06 08:21:17;;;;;;;3.35;2.58;;;;;;;27.11;52.35;93444.13;5063458;28;20203;-75
2023/08/06 08:23:45;;;;;;;2.83;2.42;;;;;;;27.76;51.45;93438.06;5069870;28;20202;-74
2023/08/06 08:26:13;;;;;;;3.35;2.85;;;;;;;27.70;50.11;93425.25;5070153;28;20229;-73
2023/08/06 08:28:40;;;;;;;3.67;3.08;;;;;;;27.61;51.80;93436.41;5070361;28;20202;-74
2023/08/06 08:31:11;;;;;;;3.53;3.08;;;;;;;27.61;50.67;93439.94;5070062;28;20785;-71
2023/08/06 08:33:37;;;;;;;4.78;2.95;;;;;;;27.69;50.88;93432.84;5069096;28;20258;-76
2023/08/06 08:36:05;;;;;;;3.72;3.13;;;;;;;27.67;51.14;93434.53;5070446;28;20256;-76
2023/08/06 08:38:32;;;;;;;2.90;2.60;;;;;;;27.50;50.98;93437.63;5068860;28;20207;-76
2023/08/06 08:40:58;;;;;;;3.15;2.67;;;;;;;27.46;51.18;93439.81;5069635;28;20239;-77
2023/08/06 08:43:27;;;;;;;3.83;2.50;;;;;;;27.99;50.52;93445.00;5069298;28;20305;-74
2023/08/06 08:45:58;;;;;;;3.25;2.95;;;;;;;28.38;49.67;93431.25;5066764;28;20364;-75
2023/08/06 08:48:26;;;;;;;4.50;3.05;;;;;;;28.53;48.44;93432.13;5068460;28;20286;-75
2023/08/06 08:50:53;;;;;;;3.03;2.80;;;;;;;28.37;48.64;93429.72;5067481;28;20211;-76
2023/08/06 08:53:22;;;;;;;3.25;2.95;;;;;;;28.46;47.58;93432.44;5068985;28;20199;-73
2023/08/06 08:55:50;;;;;;;3.95;3.13;;;;;;;28.04;48.76;93419.28;5068181;28;20226;-73
2023/08/06 08:58:17;;;;;;;3.67;3.20;;;;;;;28.07;51.07;93417.56;5067482;28;20211;-75
2023/08/06 09:00:47;;;;;;;3.50;2.85;;;;;;;28.25;48.84;93418.31;5067826;28;20199;-74
2023/08/06 09:03:14;;;;;;;4.93;3.22;;;;;;;28.56;48.96;93420.03;5075092;28;20275;-75
2023/08/06 09:05:45;;;;;;;2.88;2.60;;;;;;;28.02;49.01;93418.22;5077213;28;20253;-76
2023/08/06 09:08:24;;;;;;;5.40;4.28;;;;;;;28.41;48.97;93414.38;5067297;28;20203;-75
2023/08/06 09:10:52;;;;;;;3.45;3.13;;;;;;;28.09;49.69;93410.31;5069142;28;20199;-76
2023/08/06 09:13:19;;;;;;;3.05;2.72;;;;;;;27.81;49.98;93411.63;5069165;28;20219;-74
2023/08/06 09:15:49;;;;;;;4.63;2.90;;;;;;;28.05;48.52;93409.69;5069227;28;20570;-75
2023/08/06 09:18:25;;;;;;;3.63;2.80;;;;;;;27.88;49.08;93411.31;5069302;28;20201;-76
2023/08/06 09:20:52;;;;;;;2.63;2.42;;;;;;;28.33;48.11;93406.81;5069394;28;20605;-75
2023/08/06 09:23:20;;;;;;;3.72;2.85;;;;;;;27.99;48.72;93394.09;5060129;28;20617;-76
2023/08/06 09:25:52;;;;;;;3.25;2.60;;;;;;;28.27;47.78;93401.91;5068740;28;20309;-74
2023/08/06 09:28:19;;;;;;;4.55;2.58;;;;;;;27.85;47.34;93395.53;5069404;28;20608;-75
2023/08/06 09:30:50;;;;;;;3.30;3.00;;;;;;;27.11;49.60;93394.06;5068694;28;20308;-76
2023/08/06 09:33:19;;;;;;;3.67;2.50;;;;;;;27.15;49.82;93395.47;5076412;28;20230;-74
2023/08/06 09:35:47;;;;;;;3.00;2.50;;;;;;;28.19;48.26;93386.75;5069764;28;20235;-76
2023/08/06 09:38:14;;;;;;;2.90;2.58;;;;;;;28.66;46.16;93379.72;5067382;28;20199;-75
2023/08/06 09:40:41;;;;;;;2.53;2.17;;;;;;;28.70;47.20;93374.72;5066748;28;20245;-76
2023/08/06 09:43:08;;;;;;;2.42;2.13;;;;;;;28.97;45.23;93365.44;5068810;28;20203;-75
2023/08/06 09:45:37;;;;;;;3.60;2.28;;;;;;;29.21;45.20;93370.97;5069001;28;20207;-75
2023/08/06 09:48:06;;;;;;;2.60;2.40;;;;;;;29.65;43.51;93379.41;5068198;28;20206;-76
2023/08/06 09:50:35;;;;;;;3.28;2.80;;;;;;;28.56;45.71;93392.16;5069094;28;20260;-82
2023/08/06 09:53:04;;;;;;;3.08;2.67;;;;;;;27.63;47.17;93381.06;5056376;28;20574;-73
2023/08/06 09:55:31;;;;;;;4.20;2.00;;;;;;;27.50;47.48;93379.19;5068488;28;20291;-78
2023/08/06 09:57:59;;;;;;;3.38;2.40;;;;;;;27.53;49.17;93381.06;5067697;28;20210;-74
2023/08/06 10:00:28;;;;;;;5.75;2.35;;;;;;;27.55;48.60;93388.94;5070869;28;20268;-74
2023/08/06 10:03:00;;;;;;;2.53;2.17;;;;;;;27.09;49.10;93391.75;5059361;28;20253;-75
2023/08/06 10:05:32;;;;;;;2.75;1.95;;;;;;;26.46;50.13;93400.78;5065799;28;20286;-75
2023/08/06 10:08:03;;;;;;;3.15;1.70;;;;;;;26.63;50.04;93393.72;5066917;28;20195;-74
2023/08/06 10:10:31;;;;;;;2.05;1.85;;;;;;;26.42;50.47;93398.13;5068482;28;20621;-76
2023/08/06 10:13:00;;;;;;;3.58;2.13;;;;;;;26.22;50.60;93408.84;5066738;28;20721;-76
2023/08/06 10:15:30;;;;;;;3.67;2.17;;;;;;;26.09;52.00;93405.41;5067675;28;20321;-74
2023/08/06 10:17:58;;;;;;;2.72;2.30;;;;;;;26.25;51.22;93402.38;5068238;28;20195;-74
2023/08/06 10:20:25;;;;;;;5.45;2.25;;;;;;;26.37;51.03;93392.44;5067045;28;20191;-75
2023/08/06 10:23:05;;;;;;;2.90;1.90;;;;;;;26.14;50.81;93400.03;5066203;28;20203;-75
2023/08/06 10:25:33;;;;;;;2.22;2.03;;;;;;;26.38;50.90;93393.94;5057048;28;20279;-76
2023/08/06 10:28:01;;;;;;;4.20;2.75;;;;;;;26.92;50.97;93405.16;5067664;28;20203;-74
2023/08/06 10:30:30;;;;;;;3.08;2.40;;;;;;;26.81;50.00;93395.72;5057366;28;20264;-72
2023/08/06 10:33:00;;;;;;;4.20;2.45;;;;;;;26.40;49.96;93406.16;5066856;28;21489;-72
2023/08/06 10:35:31;;;;;;;2.20;1.70;;;;;;;26.18;50.23;93411.75;5067059;28;20226;-75
2023/08/06 10:38:06;;;;;;;3.53;1.85;;;;;;;25.76;50.21;93416.19;5066179;28;20261;-74
2023/08/06 10:40:33;;;;;;;2.03;1.83;;;;;;;25.64;51.12;93425.38;5068476;28;20285;-73
2023/08/06 10:43:01;;;;;;;4.82;1.90;;;;;;;25.77;50.61;93434.41;5067334;28;20203;-76
2023/08/06 10:45:28;;;;;;;3.83;2.05;;;;;;;25.32;52.68;93427.28;5067425;28;20281;-74
2023/08/06 10:47:57;;;;;;;5.00;1.90;;;;;;;25.39;52.87;93427.03;5068145;28;20990;-72
2023/08/06 10:50:24;;;;;;;5.68;2.08;;;;;;;25.42;53.72;93437.22;5068215;28;20298;-74
2023/08/06 10:52:51;;;;;;;2.08;1.83;;;;;;;25.14;54.99;93443.81;5064419;28;20207;-71
2023/08/06 10:55:26;;;;;;;3.05;2.28;;;;;;;25.09;55.16;93444.38;5067948;28;20222;-73
2023/08/06 10:57:54;;;;;;;2.22;1.40;;;;;;;24.94;55.55;93451.63;5067261;28;20206;-76
2023/08/06 11:00:23;;;;;;;2.50;1.95;;;;;;;25.02;54.85;93442.59;5074648;28;20198;-75
2023/08/06 11:02:50;;;;;;;2.67;1.75;;;;;;;25.05;56.62;93450.03;5060486;28;20299;-75
2023/08/06 11:05:18;;;;;;;3.42;1.90;;;;;;;25.37;55.63;93450.91;5056668;28;20237;-80
2023/08/06 11:07:44;;;;;;;3.20;2.50;;;;;;;25.31;56.50;93458.22;5067968;28;20207;-74
2023/08/06 11:10:15;;;;;;;3.00;2.33;;;;;;;25.39;53.40;93442.91;5067264;28;20203;-74
2023/08/06 11:12:43;;;;;;;2.92;2.50;;;;;;;25.61;52.53;93448.44;5066705;28;20230;-76
2023/08/06 11:15:11;;;;;;;3.40;1.77;;;;;;;25.84;54.56;93439.66;5067434;28;20203;-76
2023/08/06 11:17:41;;;;;;;5.00;1.75;;;;;;;25.32;55.79;93440.38;5067508;28;20207;-78
2023/08/06 11:20:08;;;;;;;3.80;2.00;;;;;;;25.84;55.55;93457.06;5068059;28;20222;-75
2023/08/06 11:22:37;;;;;;;2.53;2.00;;;;;;;24.76;58.29;93469.56;5069308;28;20253;-81
2023/08/06 11:25:04;;;;;;;2.22;1.92;;;;;;;24.48;60.56;93486.34;5070940;28;20246;-74
2023/08/06 11:27:31;;;;;;;2.42;2.00;;;;;;;23.52;60.80;93494.72;5071096;28;20195;-74
2023/08/06 11:29:59;;;;;;;3.83;2.67;;;;;;;23.13;61.52;93474.44;5069472;28;20191;-77
2023/08/06 11:32:27;;;;;;;0.93;0.82;;;;;;;22.50;64.62;93483.13;5070987;28;20231;-78